SAS47 BGSF-BIKF
Flight info
| Callsign | SAS47 |
|---|---|
| Flight time | 1h 41m |
| Altitude | 27000 |
| Route | WUTAN1A WUTAN UW28 DA UT592 NONRO/M082F410 DCT GIRUG GIRUG4K |
| Aircraft | A343/H-SDE2E3FGHIJ4J5M1RWXY/LB1D1 |
Departure
| Time | 2026-04-27 07:07 |
|---|---|
| Airport | Kangerlussuaq International Airport (BGSF) |
Arrival
| Time | 2026-04-27 08:48 |
|---|---|
| Airport | Keflavik International Airport (BIKF) |
| Time | Latitude | Longitude | Altitude | Speed | Heading |
|---|---|---|---|---|---|
| 2026-04-27 06:28 | 67.00787 | -50.71641 | 175 ft | 0 kts | 141° |
| 2026-04-27 06:29 | 67.00833 | -50.71351 | 178 ft | 0 kts | 144° |
| 2026-04-27 06:35 | 67.00787 | -50.71641 | 178 ft | 0 kts | 141° |
| 2026-04-27 06:35 | 67.00778 | -50.71623 | 175 ft | 0 kts | 141° |
| 2026-04-27 06:36 | 67.00833 | -50.71351 | 178 ft | 0 kts | 144° |
| 2026-04-27 07:02 | 67.00819 | -50.71306 | 178 ft | 9 kts | 118° |
| 2026-04-27 07:02 | 67.00831 | -50.71214 | 179 ft | 10 kts | 58° |
| 2026-04-27 07:03 | 67.00884 | -50.70968 | 182 ft | 20 kts | 62° |
| 2026-04-27 07:03 | 67.00978 | -50.70691 | 202 ft | 21 kts | 32° |
| 2026-04-27 07:03 | 67.01062 | -50.70413 | 205 ft | 19 kts | 61° |
| 2026-04-27 07:03 | 67.01124 | -50.70119 | 201 ft | 18 kts | 61° |
| 2026-04-27 07:04 | 67.01184 | -50.69842 | 206 ft | 17 kts | 61° |
| 2026-04-27 07:04 | 67.01239 | -50.69577 | 205 ft | 16 kts | 60° |
| 2026-04-27 07:04 | 67.01320 | -50.69393 | 213 ft | 15 kts | 37° |
| 2026-04-27 07:04 | 67.01401 | -50.69232 | 216 ft | 14 kts | 37° |
| 2026-04-27 07:05 | 67.01481 | -50.69095 | 218 ft | 13 kts | 32° |
| 2026-04-27 07:05 | 67.01556 | -50.68978 | 220 ft | 8 kts | 32° |
| 2026-04-27 07:05 | 67.01567 | -50.68960 | 218 ft | 4 kts | 32° |
| 2026-04-27 07:05 | 67.01643 | -50.68835 | 216 ft | 20 kts | 34° |
| 2026-04-27 07:06 | 67.01708 | -50.68828 | 219 ft | 2 kts | 292° |
| 2026-04-27 07:06 | 67.01700 | -50.68893 | 217 ft | 3 kts | 242° |
| 2026-04-27 07:06 | 67.01645 | -50.69153 | 218 ft | 45 kts | 241° |
| 2026-04-27 07:06 | 67.01386 | -50.70374 | 204 ft | 106 kts | 242° |
| 2026-04-27 07:07 | 67.00961 | -50.72381 | 170 ft | 152 kts | 242° |
| 2026-04-27 07:07 | 67.00403 | -50.74961 | 578 ft | 161 kts | 243° |
| 2026-04-27 07:07 | 66.99847 | -50.77368 | 1195 ft | 160 kts | 244° |
| 2026-04-27 07:07 | 66.99222 | -50.79910 | 1614 ft | 182 kts | 242° |
| 2026-04-27 07:08 | 66.98588 | -50.82910 | 2233 ft | 202 kts | 256° |
| 2026-04-27 07:08 | 66.98219 | -50.86527 | 2951 ft | 219 kts | 257° |
| 2026-04-27 07:08 | 66.97311 | -50.89839 | 3665 ft | 244 kts | 220° |
| 2026-04-27 07:08 | 66.95643 | -50.91161 | 4482 ft | 264 kts | 183° |
| 2026-04-27 07:09 | 66.93784 | -50.90597 | 5419 ft | 273 kts | 166° |
| 2026-04-27 07:09 | 66.92029 | -50.88742 | 6477 ft | 275 kts | 143° |
| 2026-04-27 07:09 | 66.90797 | -50.85139 | 7565 ft | 270 kts | 109° |
| 2026-04-27 07:09 | 66.90397 | -50.80570 | 8764 ft | 265 kts | 91° |
| 2026-04-27 07:10 | 66.90268 | -50.75858 | 9912 ft | 269 kts | 89° |
| 2026-04-27 07:10 | 66.90170 | -50.71003 | 10656 ft | 284 kts | 89° |
| 2026-04-27 07:10 | 66.90063 | -50.65787 | 11084 ft | 306 kts | 90° |
| 2026-04-27 07:10 | 66.89938 | -50.60176 | 11477 ft | 328 kts | 91° |
| 2026-04-27 07:11 | 66.89795 | -50.54222 | 12034 ft | 344 kts | 91° |
| 2026-04-27 07:11 | 66.89650 | -50.48078 | 12881 ft | 351 kts | 91° |
| 2026-04-27 07:11 | 66.89543 | -50.41841 | 13820 ft | 355 kts | 91° |
| 2026-04-27 07:11 | 66.89457 | -50.35517 | 14615 ft | 360 kts | 91° |
| 2026-04-27 07:12 | 66.89373 | -50.29106 | 15396 ft | 364 kts | 92° |
| 2026-04-27 07:12 | 66.89283 | -50.22645 | 16273 ft | 366 kts | 93° |
| 2026-04-27 07:12 | 66.89185 | -50.16136 | 17065 ft | 370 kts | 94° |
| 2026-04-27 07:12 | 66.89078 | -50.09551 | 17756 ft | 375 kts | 95° |
| 2026-04-27 07:13 | 66.88962 | -50.02878 | 18470 ft | 379 kts | 95° |
| 2026-04-27 07:13 | 66.88842 | -49.96144 | 19056 ft | 384 kts | 95° |
| 2026-04-27 07:13 | 66.88717 | -49.89313 | 19622 ft | 388 kts | 96° |
| 2026-04-27 07:13 | 66.88588 | -49.82431 | 20251 ft | 391 kts | 96° |
| 2026-04-27 07:14 | 66.88456 | -49.75478 | 20806 ft | 396 kts | 96° |
| 2026-04-27 07:14 | 66.88319 | -49.68439 | 21332 ft | 401 kts | 96° |
| 2026-04-27 07:14 | 66.88178 | -49.61408 | 21858 ft | 405 kts | 96° |
| 2026-04-27 07:14 | 66.88030 | -49.54115 | 22393 ft | 410 kts | 95° |
| 2026-04-27 07:15 | 66.87878 | -49.46833 | 22906 ft | 414 kts | 95° |
| 2026-04-27 07:15 | 66.87721 | -49.39473 | 23398 ft | 419 kts | 95° |
| 2026-04-27 07:15 | 66.87562 | -49.32143 | 23830 ft | 423 kts | 95° |
| 2026-04-27 07:15 | 66.87393 | -49.24545 | 24230 ft | 427 kts | 95° |
| 2026-04-27 07:16 | 66.87222 | -49.16976 | 24624 ft | 431 kts | 95° |
| 2026-04-27 07:16 | 66.87047 | -49.09438 | 24994 ft | 434 kts | 95° |
| 2026-04-27 07:16 | 66.86863 | -49.01635 | 25375 ft | 437 kts | 96° |
| 2026-04-27 07:16 | 66.86681 | -48.94015 | 25819 ft | 439 kts | 96° |
| 2026-04-27 07:17 | 66.86489 | -48.86231 | 26186 ft | 443 kts | 96° |
| 2026-04-27 07:17 | 66.86288 | -48.78291 | 26524 ft | 447 kts | 96° |
| 2026-04-27 07:17 | 66.86086 | -48.70485 | 26875 ft | 450 kts | 96° |
| 2026-04-27 07:17 | 66.85877 | -48.62523 | 27212 ft | 453 kts | 96° |
| 2026-04-27 07:18 | 66.85663 | -48.54493 | 27548 ft | 457 kts | 96° |
| 2026-04-27 07:18 | 66.85442 | -48.46406 | 27852 ft | 460 kts | 96° |
| 2026-04-27 07:18 | 66.85218 | -48.38293 | 28319 ft | 460 kts | 97° |
| 2026-04-27 07:18 | 66.84989 | -48.30173 | 28706 ft | 462 kts | 97° |
| 2026-04-27 07:19 | 66.84754 | -48.22001 | 28986 ft | 466 kts | 97° |
| 2026-04-27 07:19 | 66.84512 | -48.13754 | 29269 ft | 469 kts | 97° |
| 2026-04-27 07:19 | 66.84265 | -48.05468 | 29556 ft | 472 kts | 97° |
| 2026-04-27 07:19 | 66.84011 | -47.97117 | 29850 ft | 475 kts | 97° |
| 2026-04-27 07:20 | 66.83753 | -47.88724 | 30109 ft | 478 kts | 97° |
| 2026-04-27 07:20 | 66.83489 | -47.80311 | 30446 ft | 478 kts | 97° |
| 2026-04-27 07:20 | 66.83222 | -47.71908 | 30755 ft | 478 kts | 97° |
| 2026-04-27 07:20 | 66.82948 | -47.63474 | 31021 ft | 479 kts | 97° |
| 2026-04-27 07:21 | 66.82669 | -47.55029 | 31310 ft | 480 kts | 97° |
| 2026-04-27 07:21 | 66.82385 | -47.46577 | 31603 ft | 481 kts | 97° |
| 2026-04-27 07:21 | 66.82096 | -47.38107 | 31887 ft | 482 kts | 97° |
| 2026-04-27 07:21 | 66.81801 | -47.29616 | 32176 ft | 483 kts | 97° |
| 2026-04-27 07:22 | 66.81502 | -47.21118 | 32420 ft | 484 kts | 97° |
| 2026-04-27 07:22 | 66.81197 | -47.12603 | 32715 ft | 485 kts | 97° |
| 2026-04-27 07:22 | 66.80888 | -47.04081 | 32986 ft | 486 kts | 97° |
| 2026-04-27 07:22 | 66.80574 | -46.95552 | 33267 ft | 486 kts | 98° |
| 2026-04-27 07:23 | 66.80256 | -46.87027 | 33623 ft | 485 kts | 98° |
| 2026-04-27 07:23 | 66.79933 | -46.78514 | 33855 ft | 486 kts | 98° |
| 2026-04-27 07:23 | 66.79605 | -46.70000 | 34065 ft | 486 kts | 98° |
| 2026-04-27 07:23 | 66.79272 | -46.61467 | 34298 ft | 486 kts | 98° |
| 2026-04-27 07:24 | 66.78934 | -46.52937 | 34529 ft | 486 kts | 98° |
| 2026-04-27 07:24 | 66.78591 | -46.44407 | 34760 ft | 487 kts | 98° |
| 2026-04-27 07:24 | 66.78243 | -46.35869 | 34943 ft | 487 kts | 98° |
| 2026-04-27 07:24 | 66.77891 | -46.27332 | 35167 ft | 487 kts | 98° |
| 2026-04-27 07:25 | 66.77534 | -46.18803 | 35395 ft | 487 kts | 98° |
| 2026-04-27 07:25 | 66.77295 | -46.13138 | 35543 ft | 488 kts | 98° |
| 2026-04-27 07:25 | 66.76930 | -46.04600 | 35719 ft | 488 kts | 98° |
| 2026-04-27 07:25 | 66.76561 | -45.96066 | 35930 ft | 488 kts | 98° |
| 2026-04-27 07:26 | 66.76185 | -45.87507 | 36065 ft | 489 kts | 98° |
| 2026-04-27 07:26 | 66.75682 | -45.76182 | 36350 ft | 489 kts | 99° |
| 2026-04-27 07:26 | 66.75296 | -45.67622 | 36540 ft | 489 kts | 99° |
| 2026-04-27 07:26 | 66.74905 | -45.59073 | 36777 ft | 489 kts | 99° |
| 2026-04-27 07:27 | 66.74638 | -45.53297 | 36869 ft | 489 kts | 99° |
| 2026-04-27 07:27 | 66.74241 | -45.44752 | 37095 ft | 488 kts | 99° |
| 2026-04-27 07:27 | 66.73841 | -45.36246 | 37327 ft | 488 kts | 99° |
| 2026-04-27 07:27 | 66.73434 | -45.27718 | 37530 ft | 488 kts | 99° |
| 2026-04-27 07:28 | 66.73021 | -45.19187 | 37713 ft | 489 kts | 100° |
| 2026-04-27 07:28 | 66.72604 | -45.10657 | 37926 ft | 489 kts | 100° |
| 2026-04-27 07:28 | 66.72182 | -45.02126 | 38099 ft | 489 kts | 100° |
| 2026-04-27 07:28 | 66.71756 | -44.93592 | 38265 ft | 490 kts | 100° |
| 2026-04-27 07:29 | 66.71324 | -44.85052 | 38427 ft | 490 kts | 100° |
| 2026-04-27 07:29 | 66.70888 | -44.76509 | 38550 ft | 491 kts | 100° |
| 2026-04-27 07:29 | 66.70451 | -44.68049 | 38584 ft | 494 kts | 100° |
| 2026-04-27 07:30 | 66.69551 | -44.50874 | 38575 ft | 492 kts | 101° |
| 2026-04-27 07:30 | 66.68634 | -44.33762 | 38578 ft | 492 kts | 101° |
| 2026-04-27 07:31 | 66.67698 | -44.16665 | 38577 ft | 492 kts | 101° |
| 2026-04-27 07:31 | 66.66744 | -43.99580 | 38558 ft | 492 kts | 102° |
| 2026-04-27 07:32 | 66.65772 | -43.82523 | 38561 ft | 491 kts | 102° |
| 2026-04-27 07:32 | 66.64782 | -43.65488 | 38548 ft | 491 kts | 102° |
| 2026-04-27 07:33 | 66.63774 | -43.48467 | 38520 ft | 491 kts | 102° |
| 2026-04-27 07:33 | 66.62749 | -43.31454 | 38545 ft | 491 kts | 102° |
| 2026-04-27 07:34 | 66.61702 | -43.14444 | 38537 ft | 492 kts | 103° |
| 2026-04-27 07:34 | 66.60637 | -42.97444 | 38535 ft | 492 kts | 103° |
| 2026-04-27 07:35 | 66.59553 | -42.80461 | 38528 ft | 492 kts | 103° |
| 2026-04-27 07:35 | 66.58453 | -42.63499 | 38511 ft | 491 kts | 103° |
| 2026-04-27 07:36 | 66.57336 | -42.46584 | 38519 ft | 490 kts | 103° |
| 2026-04-27 07:36 | 66.56202 | -42.29707 | 38512 ft | 490 kts | 104° |
| 2026-04-27 07:37 | 66.55051 | -42.12860 | 38516 ft | 489 kts | 104° |
| 2026-04-27 07:37 | 66.53882 | -41.96027 | 38506 ft | 489 kts | 104° |
| 2026-04-27 07:38 | 66.52695 | -41.79210 | 38502 ft | 489 kts | 104° |
| 2026-04-27 07:38 | 66.51499 | -41.62535 | 38506 ft | 489 kts | 104° |
| 2026-04-27 07:39 | 66.50276 | -41.45751 | 38485 ft | 489 kts | 104° |
| 2026-04-27 07:39 | 66.49037 | -41.28998 | 38457 ft | 489 kts | 105° |
| 2026-04-27 07:40 | 66.47776 | -41.12230 | 38485 ft | 490 kts | 105° |
| 2026-04-27 07:40 | 66.46500 | -40.95496 | 38478 ft | 489 kts | 105° |
| 2026-04-27 07:41 | 66.45207 | -40.78798 | 38473 ft | 489 kts | 105° |
| 2026-04-27 07:41 | 66.43896 | -40.62117 | 38459 ft | 489 kts | 105° |
| 2026-04-27 07:42 | 66.42567 | -40.45450 | 38459 ft | 489 kts | 105° |
| 2026-04-27 07:42 | 66.41221 | -40.28816 | 38462 ft | 489 kts | 106° |
| 2026-04-27 07:43 | 66.39856 | -40.12181 | 38454 ft | 490 kts | 106° |
| 2026-04-27 07:43 | 66.38469 | -39.95519 | 38456 ft | 491 kts | 106° |
| 2026-04-27 07:44 | 66.37066 | -39.78877 | 38443 ft | 491 kts | 106° |
| 2026-04-27 07:44 | 66.35644 | -39.62249 | 38464 ft | 490 kts | 107° |
| 2026-04-27 07:45 | 66.34208 | -39.45678 | 38462 ft | 490 kts | 107° |
| 2026-04-27 07:45 | 66.32748 | -39.29075 | 38461 ft | 494 kts | 107° |
| 2026-04-27 07:46 | 66.31247 | -39.12248 | 38469 ft | 502 kts | 107° |
| 2026-04-27 07:46 | 66.29729 | -38.95408 | 38459 ft | 502 kts | 107° |
| 2026-04-27 07:47 | 66.28188 | -38.78511 | 38459 ft | 501 kts | 107° |
| 2026-04-27 07:47 | 66.26628 | -38.61660 | 38454 ft | 501 kts | 107° |
| 2026-04-27 07:48 | 66.25050 | -38.44838 | 38440 ft | 501 kts | 108° |
| 2026-04-27 07:48 | 66.23449 | -38.28000 | 38440 ft | 502 kts | 108° |
| 2026-04-27 07:49 | 66.21831 | -38.11179 | 38401 ft | 502 kts | 108° |
| 2026-04-27 07:49 | 66.20192 | -37.94360 | 38428 ft | 503 kts | 108° |
| 2026-04-27 07:50 | 66.18535 | -37.77556 | 38429 ft | 502 kts | 108° |
| 2026-04-27 07:50 | 66.16862 | -37.60792 | 38417 ft | 502 kts | 109° |
| 2026-04-27 07:51 | 66.15171 | -37.44059 | 38418 ft | 502 kts | 109° |
| 2026-04-27 07:51 | 66.13460 | -37.27340 | 38422 ft | 502 kts | 109° |
| 2026-04-27 07:52 | 66.11734 | -37.10652 | 38417 ft | 502 kts | 109° |
| 2026-04-27 07:52 | 66.09991 | -36.94002 | 38444 ft | 501 kts | 109° |
| 2026-04-27 07:53 | 66.08237 | -36.77432 | 38439 ft | 499 kts | 110° |
| 2026-04-27 07:53 | 66.06466 | -36.60912 | 38439 ft | 499 kts | 110° |
| 2026-04-27 07:54 | 66.04689 | -36.44525 | 38453 ft | 499 kts | 110° |
| 2026-04-27 07:54 | 66.02883 | -36.28054 | 38454 ft | 499 kts | 110° |
| 2026-04-27 07:55 | 66.01061 | -36.11605 | 38451 ft | 498 kts | 110° |
| 2026-04-27 07:55 | 65.99223 | -35.95195 | 38440 ft | 498 kts | 111° |
| 2026-04-27 07:56 | 65.97370 | -35.78825 | 38476 ft | 497 kts | 111° |
| 2026-04-27 07:56 | 65.95502 | -35.62501 | 38448 ft | 497 kts | 112° |
| 2026-04-27 07:57 | 65.93614 | -35.46211 | 38467 ft | 497 kts | 111° |
| 2026-04-27 07:57 | 65.91710 | -35.29946 | 38484 ft | 496 kts | 112° |
| 2026-04-27 07:58 | 65.89790 | -35.13683 | 38481 ft | 496 kts | 112° |
| 2026-04-27 07:58 | 65.87858 | -34.97483 | 38462 ft | 496 kts | 113° |
| 2026-04-27 07:59 | 65.85911 | -34.81294 | 38497 ft | 496 kts | 114° |
| 2026-04-27 07:59 | 65.82953 | -34.57072 | 38483 ft | 496 kts | 112° |
| 2026-04-27 08:00 | 65.80977 | -34.41062 | 38484 ft | 496 kts | 115° |
| 2026-04-27 08:00 | 65.78970 | -34.24978 | 38473 ft | 496 kts | 113° |
| 2026-04-27 08:01 | 65.76932 | -34.08902 | 38478 ft | 497 kts | 115° |
| 2026-04-27 08:01 | 65.74878 | -33.92826 | 38454 ft | 498 kts | 113° |
| 2026-04-27 08:02 | 65.72806 | -33.76756 | 38476 ft | 498 kts | 113° |
| 2026-04-27 08:02 | 65.70718 | -33.60696 | 38476 ft | 498 kts | 113° |
| 2026-04-27 08:03 | 65.68614 | -33.44662 | 38470 ft | 498 kts | 114° |
| 2026-04-27 08:03 | 65.66494 | -33.28667 | 38470 ft | 498 kts | 114° |
| 2026-04-27 08:04 | 65.64357 | -33.12693 | 38485 ft | 498 kts | 114° |
| 2026-04-27 08:04 | 65.62206 | -32.96759 | 38438 ft | 498 kts | 114° |
| 2026-04-27 08:05 | 65.60032 | -32.80821 | 38484 ft | 499 kts | 114° |
| 2026-04-27 08:05 | 65.57840 | -32.64890 | 38503 ft | 500 kts | 114° |
| 2026-04-27 08:06 | 65.55631 | -32.48983 | 38504 ft | 499 kts | 115° |
| 2026-04-27 08:06 | 65.53407 | -32.33111 | 38513 ft | 499 kts | 115° |
| 2026-04-27 08:07 | 65.51166 | -32.17266 | 38529 ft | 499 kts | 115° |
| 2026-04-27 08:07 | 65.48910 | -32.01458 | 38528 ft | 499 kts | 115° |
| 2026-04-27 08:08 | 65.46634 | -31.85663 | 38539 ft | 500 kts | 115° |
| 2026-04-27 08:08 | 65.44340 | -31.69875 | 38534 ft | 500 kts | 115° |
| 2026-04-27 08:09 | 65.42029 | -31.54111 | 38560 ft | 501 kts | 115° |
| 2026-04-27 08:09 | 65.39698 | -31.38353 | 38562 ft | 501 kts | 115° |
| 2026-04-27 08:10 | 65.37352 | -31.22631 | 38562 ft | 501 kts | 116° |
| 2026-04-27 08:10 | 65.34988 | -31.06933 | 38581 ft | 501 kts | 116° |
| 2026-04-27 08:11 | 65.32609 | -30.91271 | 38576 ft | 501 kts | 116° |
| 2026-04-27 08:11 | 65.30230 | -30.75742 | 38586 ft | 501 kts | 116° |
| 2026-04-27 08:12 | 65.27816 | -30.60116 | 38605 ft | 501 kts | 116° |
| 2026-04-27 08:12 | 65.25389 | -30.44533 | 38609 ft | 501 kts | 116° |
| 2026-04-27 08:13 | 65.22946 | -30.28981 | 38608 ft | 501 kts | 116° |
| 2026-04-27 08:13 | 65.20486 | -30.13448 | 38615 ft | 501 kts | 116° |
| 2026-04-27 08:14 | 65.18011 | -29.97953 | 38609 ft | 501 kts | 117° |
| 2026-04-27 08:14 | 65.15225 | -29.82840 | 38626 ft | 498 kts | 120° |
| 2026-04-27 08:15 | 65.12367 | -29.67831 | 38625 ft | 499 kts | 120° |
| 2026-04-27 08:15 | 65.09520 | -29.52815 | 38642 ft | 499 kts | 120° |
| 2026-04-27 08:16 | 65.07152 | -29.40359 | 38639 ft | 498 kts | 120° |
| 2026-04-27 08:16 | 65.04292 | -29.25398 | 38645 ft | 498 kts | 120° |
| 2026-04-27 08:17 | 65.01421 | -29.10481 | 38641 ft | 498 kts | 121° |
| 2026-04-27 08:17 | 64.98534 | -28.95590 | 38664 ft | 498 kts | 121° |
| 2026-04-27 08:18 | 64.95635 | -28.80745 | 38664 ft | 498 kts | 121° |
| 2026-04-27 08:18 | 64.92719 | -28.65919 | 38664 ft | 498 kts | 121° |
| 2026-04-27 08:19 | 64.89791 | -28.51141 | 38680 ft | 498 kts | 121° |
| 2026-04-27 08:19 | 64.86849 | -28.36393 | 38680 ft | 498 kts | 121° |
| 2026-04-27 08:20 | 64.83893 | -28.21689 | 38670 ft | 498 kts | 122° |
| 2026-04-27 08:20 | 64.80914 | -28.06972 | 38692 ft | 499 kts | 122° |
| 2026-04-27 08:21 | 64.77924 | -27.92299 | 38700 ft | 499 kts | 122° |
| 2026-04-27 08:21 | 64.74918 | -27.77655 | 38703 ft | 499 kts | 122° |
| 2026-04-27 08:22 | 64.71897 | -27.63040 | 38703 ft | 499 kts | 122° |
| 2026-04-27 08:22 | 64.68863 | -27.48466 | 38636 ft | 498 kts | 122° |
| 2026-04-27 08:23 | 64.67361 | -27.41290 | 38479 ft | 498 kts | 122° |
| 2026-04-27 08:23 | 64.65833 | -27.34013 | 38242 ft | 499 kts | 123° |
| 2026-04-27 08:23 | 64.64302 | -27.26746 | 37915 ft | 500 kts | 123° |
| 2026-04-27 08:23 | 64.62767 | -27.19482 | 37525 ft | 499 kts | 123° |
| 2026-04-27 08:24 | 64.61231 | -27.12239 | 36893 ft | 498 kts | 124° |
| 2026-04-27 08:24 | 64.59689 | -27.04994 | 36150 ft | 500 kts | 125° |
| 2026-04-27 08:24 | 64.58136 | -26.97730 | 35432 ft | 502 kts | 126° |
| 2026-04-27 08:24 | 64.56577 | -26.90457 | 34727 ft | 502 kts | 127° |
| 2026-04-27 08:25 | 64.55013 | -26.83187 | 34071 ft | 502 kts | 128° |
| 2026-04-27 08:25 | 64.53450 | -26.75937 | 33329 ft | 501 kts | 129° |
| 2026-04-27 08:25 | 64.51900 | -26.68756 | 32255 ft | 495 kts | 129° |
| 2026-04-27 08:25 | 64.50361 | -26.61660 | 31314 ft | 491 kts | 130° |
| 2026-04-27 08:26 | 64.48812 | -26.54580 | 30388 ft | 494 kts | 129° |
| 2026-04-27 08:26 | 64.47255 | -26.47474 | 29673 ft | 494 kts | 129° |
| 2026-04-27 08:26 | 64.45709 | -26.40417 | 29110 ft | 488 kts | 128° |
| 2026-04-27 08:26 | 64.44177 | -26.33446 | 28577 ft | 482 kts | 129° |
| 2026-04-27 08:27 | 64.42660 | -26.26574 | 28008 ft | 477 kts | 129° |
| 2026-04-27 08:27 | 64.41152 | -26.19766 | 27471 ft | 472 kts | 129° |
| 2026-04-27 08:27 | 64.39659 | -26.13052 | 26922 ft | 468 kts | 129° |
| 2026-04-27 08:27 | 64.38195 | -26.06493 | 26391 ft | 463 kts | 129° |
| 2026-04-27 08:28 | 64.36722 | -25.99909 | 25855 ft | 459 kts | 129° |
| 2026-04-27 08:28 | 64.35257 | -25.93388 | 25322 ft | 456 kts | 128° |
| 2026-04-27 08:28 | 64.33803 | -25.86931 | 24775 ft | 452 kts | 128° |
| 2026-04-27 08:28 | 64.32356 | -25.80522 | 24238 ft | 449 kts | 128° |
| 2026-04-27 08:29 | 64.30918 | -25.74176 | 23690 ft | 445 kts | 128° |
| 2026-04-27 08:29 | 64.29488 | -25.67891 | 23099 ft | 442 kts | 127° |
| 2026-04-27 08:29 | 64.28062 | -25.61632 | 22545 ft | 439 kts | 127° |
| 2026-04-27 08:29 | 64.26647 | -25.55435 | 22025 ft | 435 kts | 128° |
| 2026-04-27 08:30 | 64.25242 | -25.49300 | 21500 ft | 432 kts | 128° |
| 2026-04-27 08:30 | 64.23846 | -25.43221 | 20966 ft | 428 kts | 128° |
| 2026-04-27 08:30 | 64.22459 | -25.37202 | 20441 ft | 425 kts | 128° |
| 2026-04-27 08:30 | 64.21079 | -25.31231 | 19923 ft | 421 kts | 128° |
| 2026-04-27 08:31 | 64.19711 | -25.25322 | 19403 ft | 417 kts | 128° |
| 2026-04-27 08:31 | 64.18354 | -25.19477 | 18901 ft | 413 kts | 128° |
| 2026-04-27 08:31 | 64.17006 | -25.13688 | 18392 ft | 409 kts | 128° |
| 2026-04-27 08:31 | 64.15668 | -25.07960 | 17872 ft | 405 kts | 128° |
| 2026-04-27 08:32 | 64.14345 | -25.02309 | 17355 ft | 400 kts | 128° |
| 2026-04-27 08:32 | 64.13034 | -24.96722 | 16849 ft | 396 kts | 128° |
| 2026-04-27 08:32 | 64.11781 | -24.91115 | 16330 ft | 398 kts | 122° |
| 2026-04-27 08:32 | 64.11049 | -24.84955 | 15941 ft | 410 kts | 103° |
| 2026-04-27 08:33 | 64.11053 | -24.78352 | 15417 ft | 418 kts | 92° |
| 2026-04-27 08:33 | 64.11279 | -24.71719 | 14852 ft | 418 kts | 91° |
| 2026-04-27 08:33 | 64.11520 | -24.65111 | 14308 ft | 415 kts | 91° |
| 2026-04-27 08:33 | 64.11748 | -24.58547 | 13754 ft | 412 kts | 92° |
| 2026-04-27 08:34 | 64.11963 | -24.52034 | 13164 ft | 409 kts | 91° |
| 2026-04-27 08:34 | 64.12168 | -24.45573 | 12596 ft | 404 kts | 91° |
| 2026-04-27 08:34 | 64.12365 | -24.39191 | 12058 ft | 400 kts | 91° |
| 2026-04-27 08:34 | 64.12555 | -24.32876 | 11513 ft | 395 kts | 91° |
| 2026-04-27 08:35 | 64.12740 | -24.26636 | 10999 ft | 391 kts | 91° |
| 2026-04-27 08:35 | 64.12920 | -24.20526 | 10827 ft | 377 kts | 91° |
| 2026-04-27 08:35 | 64.13091 | -24.14656 | 10700 ft | 363 kts | 91° |
| 2026-04-27 08:35 | 64.13253 | -24.08997 | 10573 ft | 350 kts | 91° |
| 2026-04-27 08:36 | 64.13406 | -24.03530 | 10464 ft | 338 kts | 92° |
| 2026-04-27 08:36 | 64.13551 | -23.98243 | 10338 ft | 328 kts | 92° |
| 2026-04-27 08:36 | 64.13689 | -23.93114 | 10210 ft | 318 kts | 92° |
| 2026-04-27 08:36 | 64.13822 | -23.88126 | 10040 ft | 311 kts | 92° |
| 2026-04-27 08:37 | 64.13954 | -23.83210 | 9779 ft | 308 kts | 92° |
| 2026-04-27 08:37 | 64.14079 | -23.78339 | 9478 ft | 305 kts | 92° |
| 2026-04-27 08:37 | 64.14199 | -23.73512 | 9185 ft | 302 kts | 92° |
| 2026-04-27 08:37 | 64.14318 | -23.68725 | 8891 ft | 299 kts | 92° |
| 2026-04-27 08:38 | 64.14435 | -23.63988 | 8605 ft | 297 kts | 92° |
| 2026-04-27 08:38 | 64.14549 | -23.59299 | 8318 ft | 293 kts | 92° |
| 2026-04-27 08:38 | 64.14661 | -23.54707 | 7997 ft | 291 kts | 92° |
| 2026-04-27 08:38 | 64.14773 | -23.50061 | 7506 ft | 286 kts | 92° |
| 2026-04-27 08:39 | 64.14880 | -23.45533 | 7082 ft | 284 kts | 92° |
| 2026-04-27 08:39 | 64.14983 | -23.41096 | 6788 ft | 281 kts | 92° |
| 2026-04-27 08:39 | 64.15085 | -23.36638 | 6497 ft | 279 kts | 91° |
| 2026-04-27 08:39 | 64.15186 | -23.32218 | 6207 ft | 276 kts | 91° |
| 2026-04-27 08:40 | 64.15284 | -23.27835 | 5878 ft | 274 kts | 91° |
| 2026-04-27 08:40 | 64.15381 | -23.23480 | 5551 ft | 273 kts | 91° |
| 2026-04-27 08:40 | 64.15475 | -23.19139 | 5209 ft | 272 kts | 91° |
| 2026-04-27 08:40 | 64.15568 | -23.14821 | 4889 ft | 271 kts | 91° |
| 2026-04-27 08:41 | 64.15660 | -23.10529 | 4575 ft | 268 kts | 91° |
| 2026-04-27 08:41 | 64.15750 | -23.06281 | 4267 ft | 266 kts | 91° |
| 2026-04-27 08:41 | 64.15837 | -23.02111 | 4112 ft | 257 kts | 91° |
| 2026-04-27 08:41 | 64.15921 | -22.98089 | 3990 ft | 248 kts | 92° |
| 2026-04-27 08:42 | 64.16001 | -22.94204 | 3868 ft | 240 kts | 91° |
| 2026-04-27 08:42 | 64.16077 | -22.90449 | 3715 ft | 233 kts | 92° |
| 2026-04-27 08:42 | 64.16148 | -22.86748 | 3482 ft | 232 kts | 92° |
| 2026-04-27 08:42 | 64.16217 | -22.83055 | 3225 ft | 231 kts | 92° |
| 2026-04-27 08:43 | 64.16182 | -22.79416 | 3002 ft | 225 kts | 105° |
| 2026-04-27 08:43 | 64.15611 | -22.76184 | 2907 ft | 215 kts | 127° |
| 2026-04-27 08:43 | 64.14790 | -22.73407 | 2777 ft | 206 kts | 130° |
| 2026-04-27 08:43 | 64.13965 | -22.70789 | 2602 ft | 199 kts | 130° |
| 2026-04-27 08:44 | 64.13170 | -22.68276 | 2485 ft | 191 kts | 131° |
| 2026-04-27 08:44 | 64.12420 | -22.65908 | 2404 ft | 176 kts | 131° |
| 2026-04-27 08:44 | 64.11732 | -22.63712 | 2284 ft | 164 kts | 131° |
| 2026-04-27 08:44 | 64.11023 | -22.61799 | 2137 ft | 152 kts | 145° |
| 2026-04-27 08:45 | 64.10085 | -22.60908 | 2039 ft | 143 kts | 167° |
| 2026-04-27 08:45 | 64.09145 | -22.60573 | 1903 ft | 129 kts | 182° |
| 2026-04-27 08:45 | 64.08292 | -22.60602 | 1769 ft | 118 kts | 178° |
| 2026-04-27 08:45 | 64.07451 | -22.60564 | 1765 ft | 125 kts | 181° |
| 2026-04-27 08:46 | 64.06549 | -22.60574 | 1686 ft | 134 kts | 181° |
| 2026-04-27 08:46 | 64.05611 | -22.60541 | 1488 ft | 135 kts | 180° |
| 2026-04-27 08:46 | 64.04672 | -22.60536 | 1312 ft | 135 kts | 181° |
| 2026-04-27 08:46 | 64.03739 | -22.60571 | 1118 ft | 134 kts | 182° |
| 2026-04-27 08:47 | 64.02809 | -22.60538 | 929 ft | 134 kts | 179° |
| 2026-04-27 08:47 | 64.01880 | -22.60527 | 734 ft | 132 kts | 181° |
| 2026-04-27 08:47 | 64.00963 | -22.60549 | 577 ft | 132 kts | 181° |
| 2026-04-27 08:47 | 64.00046 | -22.60542 | 365 ft | 130 kts | 178° |
| 2026-04-27 08:48 | 63.99178 | -22.60540 | 213 ft | 122 kts | 179° |
| 2026-04-27 08:48 | 63.98430 | -22.60545 | 167 ft | 75 kts | 180° |
| 2026-04-27 08:48 | 63.98152 | -22.60547 | 154 ft | 26 kts | 180° |
| 2026-04-27 08:48 | 63.97980 | -22.60547 | 152 ft | 23 kts | 180° |
| 2026-04-27 08:49 | 63.97830 | -22.60543 | 152 ft | 20 kts | 179° |
| 2026-04-27 08:49 | 63.97690 | -22.60544 | 152 ft | 20 kts | 181° |
| 2026-04-27 08:49 | 63.97544 | -22.60543 | 152 ft | 24 kts | 180° |
| 2026-04-27 08:49 | 63.97434 | -22.60591 | 150 ft | 9 kts | 224° |
| 2026-04-27 08:50 | 63.97434 | -22.60713 | 150 ft | 9 kts | 287° |
| 2026-04-27 08:50 | 63.97453 | -22.60861 | 150 ft | 11 kts | 287° |
| 2026-04-27 08:50 | 63.97509 | -22.60943 | 150 ft | 10 kts | 358° |
| 2026-04-27 08:50 | 63.97607 | -22.60944 | 151 ft | 22 kts | 360° |
| 2026-04-27 08:51 | 63.97772 | -22.60946 | 152 ft | 24 kts | 360° |
| 2026-04-27 08:51 | 63.97944 | -22.60949 | 153 ft | 25 kts | 359° |
| 2026-04-27 08:51 | 63.98123 | -22.60947 | 154 ft | 26 kts | 1° |
| 2026-04-27 08:51 | 63.98308 | -22.60939 | 155 ft | 27 kts | 1° |
| 2026-04-27 08:52 | 63.98500 | -22.60939 | 157 ft | 28 kts | 359° |
| 2026-04-27 08:52 | 63.98696 | -22.60945 | 161 ft | 28 kts | 359° |
| 2026-04-27 08:52 | 63.98890 | -22.60945 | 165 ft | 28 kts | 0° |
| 2026-04-27 08:52 | 63.99035 | -22.60944 | 168 ft | 8 kts | 360° |
| 2026-04-27 08:53 | 63.99040 | -22.60944 | 168 ft | 0 kts | 360° |
| 2026-04-27 08:55 | 63.99043 | -22.60944 | 168 ft | 3 kts | 360° |
| 2026-04-27 08:56 | 63.99117 | -22.60945 | 170 ft | 16 kts | 358° |
| 2026-04-27 08:56 | 63.99170 | -22.61034 | 171 ft | 9 kts | 281° |
| 2026-04-27 08:56 | 63.99171 | -22.61198 | 170 ft | 14 kts | 270° |
| 2026-04-27 08:56 | 63.99171 | -22.61489 | 169 ft | 22 kts | 270° |
| 2026-04-27 08:57 | 63.99173 | -22.62148 | 167 ft | 19 kts | 269° |
| 2026-04-27 08:57 | 63.99195 | -22.62304 | 167 ft | 7 kts | 338° |
| 2026-04-27 08:57 | 63.99226 | -22.62272 | 167 ft | 4 kts | 56° |
| 2026-04-27 08:58 | 63.99232 | -22.62202 | 167 ft | 5 kts | 87° |
| 2026-04-27 08:58 | 63.99245 | -22.62142 | 167 ft | 1 kts | 42° |
| 2026-04-27 08:58 | 63.99247 | -22.62040 | 168 ft | 12 kts | 104° |
| 2026-04-27 08:58 | 63.99191 | -22.61992 | 167 ft | 9 kts | 196° |
| 2026-04-27 08:59 | 63.99172 | -22.62106 | 167 ft | 11 kts | 270° |
| 2026-04-27 08:59 | 63.99181 | -22.62289 | 167 ft | 7 kts | 305° |
| 2026-04-27 08:59 | 63.99213 | -22.62305 | 167 ft | 7 kts | 359° |
| 2026-04-27 08:59 | 63.99271 | -22.62307 | 167 ft | 5 kts | 359° |
| 2026-04-27 09:00 | 63.99287 | -22.62308 | 167 ft | 0 kts | 359° |